Time;durP1;ratioP1;P1;durP2;ratioP2;P2;SDS_P1;SDS_P2;PMS_P1;PMS_P2;Temp;Humidity;BMP_temperature;BMP_pressure;BME280_temperature;BME280_humidity;BME280_pressure;Samples;Min_cycle;Max_cycle;Signal;HPM_P1;HPM_P2
2021/11/20 00:01:13;;;;;;;;;;;19.80;99.90;;;;;;5075061;28;19928;-71
2021/11/20 00:03:44;;;;;;;;;;;19.80;99.90;;;;;;5075014;28;19916;-73
2021/11/20 00:06:12;;;;;;;;;;;19.70;99.90;;;;;;5074790;28;19912;-75
2021/11/20 00:08:39;;;;;;;;;;;19.80;99.90;;;;;;5075158;28;19909;-74
2021/11/20 00:11:07;;;;;;;;;;;19.80;99.90;;;;;;5074870;28;19916;-74
2021/11/20 00:13:35;;;;;;;;;;;19.80;99.90;;;;;;5074248;28;19912;-75
2021/11/20 00:16:04;;;;;;;;;;;19.90;99.90;;;;;;5074637;28;19928;-76
2021/11/20 00:18:31;;;;;;;;;;;19.90;99.90;;;;;;5074614;28;19930;-75
2021/11/20 00:20:59;;;;;;;;;;;19.90;99.90;;;;;;5074575;28;19912;-74
2021/11/20 00:23:31;;;;;;;;;;;19.90;99.90;;;;;;5074684;28;20275;-73
2021/11/20 00:25:59;;;;;;;;;;;19.90;99.90;;;;;;5074397;28;20508;-74
2021/11/20 00:28:31;;;;;;;;;;;19.90;99.90;;;;;;5073771;28;20006;-74
2021/11/20 00:31:05;;;;;;;;;;;20.00;99.90;;;;;;5074558;28;19915;-74
2021/11/20 00:33:33;;;;;;;;;;;20.10;99.90;;;;;;5074228;28;19916;-73
2021/11/20 00:36:00;;;;;;;;;;;20.00;99.90;;;;;;5074179;28;19915;-73
2021/11/20 00:38:27;;;;;;;;;;;20.10;99.90;;;;;;5074166;28;19909;-73
2021/11/20 00:40:56;;;;;;;;;;;20.10;99.90;;;;;;5074132;28;19962;-74
2021/11/20 00:43:23;;;;;;;;;;;20.10;99.90;;;;;;5073688;28;19908;-72
2021/11/20 00:45:50;;;;;;;;;;;20.10;99.90;;;;;;5074182;28;19943;-75
2021/11/20 00:48:17;;;;;;;;;;;20.10;99.90;;;;;;5074401;28;19916;-74
2021/11/20 00:50:46;;;;;;;;;;;20.00;99.90;;;;;;5073981;28;19969;-74
2021/11/20 00:53:13;;;;;;;;;;;20.00;99.90;;;;;;5073952;28;20386;-75
2021/11/20 00:55:40;;;;;;;;;;;20.00;99.90;;;;;;5073910;28;19909;-74
2021/11/20 00:58:07;;;;;;;;;;;19.90;99.90;;;;;;5073024;28;19908;-72
2021/11/20 01:00:37;;;;;;;;;;;19.90;99.90;;;;;;5072818;28;20755;-73
2021/11/20 01:03:04;;;;;;;;;;;19.90;99.90;;;;;;5073409;28;19909;-73
2021/11/20 01:05:31;;;;;;;;;;;19.90;99.90;;;;;;5073496;28;20323;-72
2021/11/20 01:07:58;;;;;;;;;;;20.00;99.90;;;;;;5073134;28;19915;-73
2021/11/20 01:10:29;;;;;;;;;;;20.00;99.90;;;;;;5072169;28;19916;-72
2021/11/20 01:12:57;;;;;;;;;;;20.00;99.90;;;;;;5070730;28;20317;-72
2021/11/20 01:15:30;;;;;;;;;;;20.00;99.90;;;;;;5072559;28;20456;-72
2021/11/20 01:17:57;;;;;;;;;;;20.00;99.90;;;;;;5072930;28;19908;-73
2021/11/20 01:20:24;;;;;;;;;;;20.00;99.90;;;;;;5073456;28;19917;-73
2021/11/20 01:22:51;;;;;;;;;;;20.10;99.90;;;;;;5073356;28;19975;-73
2021/11/20 01:25:17;;;;;;;;;;;20.10;99.90;;;;;;5073005;28;20285;-73
2021/11/20 01:27:44;;;;;;;;;;;20.20;99.90;;;;;;5072948;28;19940;-73
2021/11/20 01:30:12;;;;;;;;;;;20.20;99.90;;;;;;5073294;28;20007;-72
2021/11/20 01:32:38;;;;;;;;;;;20.10;99.90;;;;;;5072893;28;19916;-72
2021/11/20 01:35:07;;;;;;;;;;;20.20;99.90;;;;;;5071003;28;19913;-73
2021/11/20 01:37:35;;;;;;;;;;;20.20;99.90;;;;;;5071957;28;19948;-73
2021/11/20 01:40:05;;;;;;;;;;;20.10;99.90;;;;;;5072789;28;20003;-73
2021/11/20 01:42:32;;;;;;;;;;;20.10;99.90;;;;;;5072947;28;20003;-73
2021/11/20 01:45:00;;;;;;;;;;;20.00;99.90;;;;;;5073217;28;19957;-74
2021/11/20 01:47:32;;;;;;;;;;;19.90;99.90;;;;;;5073007;28;19908;-74
2021/11/20 01:50:03;;;;;;;;;;;19.80;99.90;;;;;;5072488;28;19931;-73
2021/11/20 01:52:38;;;;;;;;;;;19.60;99.90;;;;;;5071116;28;20010;-75
2021/11/20 01:55:18;;;;;;;;;;;19.40;99.90;;;;;;5071339;28;19970;-74
2021/11/20 01:57:52;;;;;;;;;;;19.30;99.90;;;;;;5071670;28;19919;-74
2021/11/20 02:00:37;;;;;;;;;;;19.20;99.90;;;;;;5072160;28;19924;-72
2021/11/20 02:03:08;;;;;;;;;;;19.10;99.90;;;;;;5072103;28;20295;-70
2021/11/20 02:06:10;;;;;;;;;;;19.10;99.90;;;;;;5072309;28;19917;-68
2021/11/20 02:08:37;;;;;;;;;;;19.10;99.90;;;;;;5010951;28;20366;-73
2021/11/20 02:11:09;;;;;;;;;;;19.10;99.90;;;;;;5059412;28;19919;-74
2021/11/20 02:13:37;;;;;;;;;;;19.10;99.90;;;;;;5072619;28;19919;-73
2021/11/20 02:16:07;;;;;;;;;;;18.90;99.90;;;;;;5072608;28;20331;-74
2021/11/20 02:18:36;;;;;;;;;;;18.90;99.90;;;;;;5072532;28;19935;-73
2021/11/20 02:21:08;;;;;;;;;;;18.90;99.90;;;;;;5072659;28;19927;-74
2021/11/20 02:23:35;;;;;;;;;;;19.00;99.90;;;;;;5072583;28;20311;-73
2021/11/20 02:26:02;;;;;;;;;;;19.10;99.90;;;;;;5072454;28;19909;-73
2021/11/20 02:28:30;;;;;;;;;;;19.10;99.90;;;;;;5072471;28;20335;-74
2021/11/20 02:30:58;;;;;;;;;;;19.10;99.90;;;;;;5072518;28;19909;-72
2021/11/20 02:33:27;;;;;;;;;;;19.20;99.90;;;;;;5072374;28;19913;-73
2021/11/20 02:36:01;;;;;;;;;;;19.10;99.90;;;;;;5072181;28;19909;-71
2021/11/20 02:38:31;;;;;;;;;;;19.10;99.90;;;;;;5072408;28;20347;-73
2021/11/20 02:40:59;;;;;;;;;;;19.10;99.90;;;;;;5072481;28;20367;-74
2021/11/20 02:43:26;;;;;;;;;;;19.00;99.90;;;;;;5072112;28;19915;-74
2021/11/20 02:45:55;;;;;;;;;;;18.90;99.90;;;;;;5071981;28;19908;-72
2021/11/20 02:48:22;;;;;;;;;;;18.80;99.90;;;;;;5072154;28;19919;-69
2021/11/20 02:50:51;;;;;;;;;;;18.70;99.90;;;;;;5072137;28;19915;-73
2021/11/20 02:53:20;;;;;;;;;;;18.70;99.90;;;;;;5072297;28;20299;-74
2021/11/20 02:55:48;;;;;;;;;;;18.60;99.90;;;;;;5072194;28;20011;-73
2021/11/20 02:58:16;;;;;;;;;;;18.70;99.90;;;;;;5072088;28;19914;-72
2021/11/20 03:00:43;;;;;;;;;;;18.70;99.90;;;;;;5072073;28;19921;-70
2021/11/20 03:03:10;;;;;;;;;;;18.50;99.90;;;;;;5072098;28;19909;-73
2021/11/20 03:05:37;;;;;;;;;;;18.60;99.90;;;;;;5072018;28;19912;-72
2021/11/20 03:08:04;;;;;;;;;;;18.60;99.90;;;;;;5071876;28;19912;-70
2021/11/20 03:10:31;;;;;;;;;;;18.60;99.90;;;;;;5072211;28;19926;-69
2021/11/20 03:12:58;;;;;;;;;;;18.50;99.90;;;;;;5072033;28;19923;-71
2021/11/20 03:15:24;;;;;;;;;;;18.50;99.90;;;;;;5072073;28;20042;-72
2021/11/20 03:17:51;;;;;;;;;;;18.50;99.90;;;;;;5071629;28;19995;-70
2021/11/20 03:20:20;;;;;;;;;;;18.50;99.90;;;;;;5072025;28;20314;-71
2021/11/20 03:22:49;;;;;;;;;;;18.50;99.90;;;;;;5071245;28;19916;-70
2021/11/20 03:25:16;;;;;;;;;;;18.60;99.90;;;;;;5075704;28;19943;-73
2021/11/20 03:27:43;;;;;;;;;;;18.60;99.90;;;;;;5073519;28;19908;-70
2021/11/20 03:30:10;;;;;;;;;;;18.60;99.90;;;;;;5066060;28;19917;-68
2021/11/20 03:32:37;;;;;;;;;;;18.50;99.90;;;;;;5066423;28;19924;-72
2021/11/20 03:35:05;;;;;;;;;;;18.50;99.90;;;;;;5075047;28;19912;-71
2021/11/20 03:37:32;;;;;;;;;;;18.60;99.90;;;;;;5075451;28;20386;-73
2021/11/20 03:39:59;;;;;;;;;;;18.60;99.90;;;;;;5075337;28;20458;-72
2021/11/20 03:42:25;;;;;;;;;;;18.60;99.90;;;;;;5075371;28;19950;-73
2021/11/20 03:44:52;;;;;;;;;;;18.70;99.90;;;;;;5075432;28;19909;-71
2021/11/20 03:47:19;;;;;;;;;;;18.70;99.90;;;;;;5075249;28;19908;-72
2021/11/20 03:49:46;;;;;;;;;;;18.70;99.90;;;;;;5074767;28;19934;-67
2021/11/20 03:52:13;;;;;;;;;;;18.80;99.90;;;;;;5074885;28;19943;-71
2021/11/20 03:54:40;;;;;;;;;;;18.80;99.90;;;;;;5075287;28;19908;-71
2021/11/20 03:57:07;;;;;;;;;;;18.90;99.90;;;;;;5075155;28;19909;-72
2021/11/20 03:59:33;;;;;;;;;;;18.90;99.90;;;;;;5090534;28;19955;-69
2021/11/20 04:02:00;;;;;;;;;;;18.90;99.90;;;;;;5074689;28;19912;-71
2021/11/20 04:04:28;;;;;;;;;;;18.90;99.90;;;;;;5074990;28;19908;-72
2021/11/20 04:06:56;;;;;;;;;;;18.90;99.90;;;;;;5074749;28;20015;-71
2021/11/20 04:09:22;;;;;;;;;;;18.90;99.90;;;;;;5075207;28;19908;-71
2021/11/20 04:11:50;;;;;;;;;;;18.90;99.90;;;;;;5074584;28;19920;-69
2021/11/20 04:14:17;;;;;;;;;;;18.90;99.90;;;;;;5074867;28;19912;-70
2021/11/20 04:16:45;;;;;;;;;;;18.80;99.90;;;;;;5074830;28;19909;-71
2021/11/20 04:19:11;;;;;;;;;;;18.80;99.90;;;;;;5074479;28;19919;-72
2021/11/20 04:21:39;;;;;;;;;;;18.80;99.90;;;;;;5074243;28;19915;-71
2021/11/20 04:24:06;;;;;;;;;;;18.80;99.90;;;;;;5074647;28;19915;-70
2021/11/20 04:26:33;;;;;;;;;;;18.80;99.90;;;;;;5074775;28;19909;-70
2021/11/20 04:29:00;;;;;;;;;;;18.80;99.90;;;;;;5074667;28;19934;-69
2021/11/20 04:31:26;;;;;;;;;;;18.70;99.90;;;;;;5074783;28;19919;-68
2021/11/20 04:33:54;;;;;;;;;;;18.80;99.90;;;;;;5089341;28;19912;-71
2021/11/20 04:36:21;;;;;;;;;;;18.80;99.90;;;;;;5073756;28;20174;-72
2021/11/20 04:38:48;;;;;;;;;;;18.70;99.90;;;;;;5074394;28;19908;-72
2021/11/20 04:41:15;;;;;;;;;;;18.70;99.90;;;;;;5074485;28;19924;-69
2021/11/20 04:43:43;;;;;;;;;;;18.70;99.90;;;;;;5074364;28;20314;-71
2021/11/20 04:46:10;;;;;;;;;;;18.60;99.90;;;;;;5074151;28;20321;-71
2021/11/20 04:48:36;;;;;;;;;;;18.60;99.90;;;;;;5074097;28;19908;-71
2021/11/20 04:51:03;;;;;;;;;;;18.60;99.90;;;;;;5073585;28;19909;-70
2021/11/20 04:53:31;;;;;;;;;;;18.60;99.90;;;;;;5074394;28;19948;-72
2021/11/20 04:55:58;;;;;;;;;;;18.70;99.90;;;;;;5073762;28;19924;-70
2021/11/20 04:58:25;;;;;;;;;;;18.80;99.90;;;;;;5074044;28;19983;-70
2021/11/20 05:00:53;;;;;;;;;;;18.90;99.90;;;;;;5073744;28;19952;-70
2021/11/20 05:03:21;;;;;;;;;;;18.90;99.90;;;;;;5073692;28;20270;-69
2021/11/20 05:05:49;;;;;;;;;;;18.80;99.90;;;;;;5073184;28;19963;-70
2021/11/20 05:08:15;;;;;;;;;;;18.80;99.90;;;;;;5073857;28;19934;-71
2021/11/20 05:10:42;;;;;;;;;;;18.80;99.90;;;;;;5073852;28;19916;-71
2021/11/20 05:13:09;;;;;;;;;;;18.80;99.90;;;;;;5073671;28;19916;-72
2021/11/20 05:15:37;;;;;;;;;;;18.80;99.90;;;;;;5073689;28;20359;-72
2021/11/20 05:18:05;;;;;;;;;;;18.70;99.90;;;;;;5073344;28;19984;-69
2021/11/20 05:20:32;;;;;;;;;;;18.70;99.90;;;;;;5072867;28;19913;-70
2021/11/20 05:22:58;;;;;;;;;;;18.60;99.90;;;;;;5073395;28;19916;-70
2021/11/20 05:25:25;;;;;;;;;;;18.60;99.90;;;;;;5073429;28;19999;-72
2021/11/20 05:27:53;;;;;;;;;;;18.60;99.90;;;;;;5073226;28;20410;-72
2021/11/20 05:30:25;;;;;;;;;;;18.50;99.90;;;;;;5073545;28;19935;-71
2021/11/20 05:32:52;;;;;;;;;;;18.60;99.90;;;;;;5088945;28;20015;-71
2021/11/20 05:35:20;;;;;;;;;;;18.50;99.90;;;;;;5072763;28;19947;-70
2021/11/20 05:37:47;;;;;;;;;;;18.40;99.90;;;;;;5073067;28;20320;-71
2021/11/20 05:40:15;;;;;;;;;;;18.40;99.90;;;;;;5073059;28;19915;-71
2021/11/20 05:42:42;;;;;;;;;;;18.30;99.90;;;;;;5073186;28;19939;-69
2021/11/20 05:45:09;;;;;;;;;;;18.30;99.90;;;;;;5073118;28;20280;-71
2021/11/20 05:47:36;;;;;;;;;;;18.30;99.90;;;;;;5072963;28;19908;-74
2021/11/20 05:50:05;;;;;;;;;;;18.40;99.90;;;;;;5072271;28;20375;-72
2021/11/20 05:52:31;;;;;;;;;;;18.30;99.90;;;;;;5072992;28;20007;-70
2021/11/20 05:54:58;;;;;;;;;;;18.30;99.90;;;;;;5073007;28;20358;-72
2021/11/20 05:57:25;;;;;;;;;;;18.30;99.90;;;;;;5072774;28;20307;-69
2021/11/20 05:59:52;;;;;;;;;;;18.30;99.90;;;;;;5072538;28;19932;-72
2021/11/20 06:02:19;;;;;;;;;;;18.40;99.90;;;;;;5072726;28;19915;-71
2021/11/20 06:04:46;;;;;;;;;;;18.30;99.90;;;;;;5072332;28;19961;-72
2021/11/20 06:07:13;;;;;;;;;;;18.40;99.90;;;;;;5072995;28;19915;-71
2021/11/20 06:09:40;;;;;;;;;;;18.30;99.90;;;;;;5072494;28;19970;-71
2021/11/20 06:12:08;;;;;;;;;;;18.30;99.90;;;;;;5072699;28;20022;-72
2021/11/20 06:14:34;;;;;;;;;;;18.30;99.90;;;;;;5072743;28;19920;-72
2021/11/20 06:17:01;;;;;;;;;;;18.20;99.90;;;;;;5072320;28;20463;-73
2021/11/20 06:19:28;;;;;;;;;;;18.20;99.90;;;;;;5071015;28;19992;-71
2021/11/20 06:21:55;;;;;;;;;;;18.10;99.90;;;;;;5072255;28;19918;-71
2021/11/20 06:24:21;;;;;;;;;;;18.10;99.90;;;;;;5072545;28;19995;-71
2021/11/20 06:26:48;;;;;;;;;;;18.10;99.90;;;;;;5072784;28;19908;-73
2021/11/20 06:29:16;;;;;;;;;;;18.10;99.90;;;;;;5072509;28;19909;-71
2021/11/20 06:31:42;;;;;;;;;;;18.10;99.90;;;;;;5070823;28;19920;-72
2021/11/20 06:34:09;;;;;;;;;;;18.10;99.90;;;;;;5071146;28;19987;-70
2021/11/20 06:36:36;;;;;;;;;;;18.10;99.90;;;;;;5071377;28;20317;-71
2021/11/20 06:39:03;;;;;;;;;;;18.10;99.90;;;;;;5071445;28;19909;-71
2021/11/20 06:41:29;;;;;;;;;;;18.10;99.90;;;;;;5071368;28;19928;-72
2021/11/20 06:43:56;;;;;;;;;;;18.10;99.90;;;;;;5071139;28;19908;-72
2021/11/20 06:46:23;;;;;;;;;;;18.10;99.90;;;;;;5072016;28;20029;-71
2021/11/20 06:48:50;;;;;;;;;;;18.00;99.90;;;;;;5072448;28;19916;-71
2021/11/20 06:51:18;;;;;;;;;;;18.10;99.90;;;;;;5072057;28;19912;-71
2021/11/20 06:53:46;;;;;;;;;;;18.00;99.90;;;;;;5088001;28;19912;-70
2021/11/20 06:56:25;;;;;;;;;;;18.00;99.90;;;;;;5072305;28;20465;-69
2021/11/20 06:59:05;;;;;;;;;;;18.00;99.90;;;;;;5075171;28;19920;-70
2021/11/20 07:01:32;;;;;;;;;;;18.00;99.90;;;;;;5076116;28;20354;-71
2021/11/20 07:04:01;;;;;;;;;;;18.00;99.90;;;;;;5075954;28;19915;-71
2021/11/20 07:06:31;;;;;;;;;;;18.00;99.90;;;;;;5076154;28;19908;-71
2021/11/20 07:08:58;;;;;;;;;;;17.90;99.90;;;;;;5076169;28;19908;-73
2021/11/20 07:11:25;;;;;;;;;;;17.90;99.90;;;;;;5076018;28;20329;-72
2021/11/20 07:13:52;;;;;;;;;;;17.90;99.90;;;;;;5075725;28;19920;-71
2021/11/20 07:16:20;;;;;;;;;;;17.90;99.90;;;;;;5075386;28;19951;-72
2021/11/20 07:18:47;;;;;;;;;;;17.90;99.90;;;;;;5075527;28;19909;-72
2021/11/20 07:21:14;;;;;;;;;;;17.90;99.90;;;;;;5076058;28;19931;-71
2021/11/20 07:23:41;;;;;;;;;;;17.80;99.90;;;;;;5075859;28;20350;-71
2021/11/20 07:26:08;;;;;;;;;;;17.90;99.90;;;;;;5075517;28;19991;-71
2021/11/20 07:28:35;;;;;;;;;;;17.90;99.90;;;;;;5075765;28;19909;-71
2021/11/20 07:31:02;;;;;;;;;;;17.90;99.90;;;;;;5075555;28;19940;-73
2021/11/20 07:33:29;;;;;;;;;;;17.90;99.90;;;;;;5075827;28;19919;-70
2021/11/20 07:35:57;;;;;;;;;;;17.90;99.90;;;;;;5075434;28;19908;-72
2021/11/20 07:38:26;;;;;;;;;;;17.90;99.90;;;;;;5075611;28;19915;-71
2021/11/20 07:40:53;;;;;;;;;;;17.90;99.90;;;;;;5075580;28;19912;-70
2021/11/20 07:43:20;;;;;;;;;;;17.80;99.90;;;;;;5075522;28;19909;-69
2021/11/20 07:45:46;;;;;;;;;;;17.80;99.90;;;;;;5075238;28;19931;-72
2021/11/20 07:48:15;;;;;;;;;;;17.80;99.90;;;;;;5075492;28;19958;-72
2021/11/20 07:50:42;;;;;;;;;;;17.80;99.90;;;;;;5075390;28;19912;-73
2021/11/20 07:53:08;;;;;;;;;;;17.90;99.90;;;;;;5090940;28;20337;-72
2021/11/20 07:55:35;;;;;;;;;;;17.80;99.90;;;;;;5075529;28;19930;-72
2021/11/20 07:58:02;;;;;;;;;;;17.80;99.90;;;;;;5075223;28;19920;-71
2021/11/20 08:00:30;;;;;;;;;;;17.70;99.90;;;;;;5075028;28;19920;-72
2021/11/20 08:02:56;;;;;;;;;;;17.60;99.90;;;;;;5074675;28;20302;-71
2021/11/20 08:05:27;;;;;;;;;;;17.60;99.90;;;;;;5075081;28;19915;-72
2021/11/20 08:07:54;;;;;;;;;;;17.60;99.90;;;;;;5074910;28;19909;-73
2021/11/20 08:10:21;;;;;;;;;;;17.40;99.90;;;;;;5075060;28;19915;-72
2021/11/20 08:12:48;;;;;;;;;;;17.40;99.90;;;;;;5074964;28;20293;-73
2021/11/20 08:15:15;;;;;;;;;;;17.50;99.90;;;;;;5074861;28;19908;-72
2021/11/20 08:17:42;;;;;;;;;;;17.40;99.90;;;;;;5074697;28;19958;-70
2021/11/20 08:20:10;;;;;;;;;;;17.40;99.90;;;;;;5074717;28;19955;-71
2021/11/20 08:22:37;;;;;;;;;;;17.40;99.90;;;;;;5074895;28;19909;-72
2021/11/20 08:25:05;;;;;;;;;;;17.40;99.90;;;;;;5074649;28;19948;-72
2021/11/20 08:27:33;;;;;;;;;;;17.50;99.90;;;;;;5074749;28;19920;-71
2021/11/20 08:30:00;;;;;;;;;;;17.50;99.90;;;;;;5074645;28;19908;-72
2021/11/20 08:32:27;;;;;;;;;;;17.50;99.90;;;;;;5074563;28;19979;-73
2021/11/20 08:34:56;;;;;;;;;;;17.50;99.90;;;;;;5074679;28;19908;-72
2021/11/20 08:37:23;;;;;;;;;;;17.50;99.90;;;;;;5073120;28;19916;-71
2021/11/20 08:39:52;;;;;;;;;;;17.50;99.90;;;;;;5074262;28;19947;-72
2021/11/20 08:42:19;;;;;;;;;;;17.50;99.90;;;;;;5074321;28;19908;-71
2021/11/20 08:44:46;;;;;;;;;;;17.50;99.90;;;;;;5074566;28;19915;-72
2021/11/20 08:47:13;;;;;;;;;;;17.50;99.90;;;;;;5073818;28;19995;-72
2021/11/20 08:49:40;;;;;;;;;;;17.60;99.90;;;;;;5074508;28;20483;-73
2021/11/20 08:52:10;;;;;;;;;;;17.50;99.90;;;;;;5073892;28;19916;-72
2021/11/20 08:54:36;;;;;;;;;;;17.40;99.90;;;;;;5074118;28;19908;-72
2021/11/20 08:57:03;;;;;;;;;;;17.40;99.90;;;;;;5074182;28;19909;-71
2021/11/20 08:59:30;;;;;;;;;;;17.40;99.90;;;;;;5073858;28;20385;-71
2021/11/20 09:02:02;;;;;;;;;;;17.30;99.90;;;;;;5073359;28;19995;-72
2021/11/20 09:04:39;;;;;;;;;;;17.30;99.90;;;;;;5073974;28;19908;-71
2021/11/20 09:07:14;;;;;;;;;;;17.30;99.90;;;;;;5073964;28;20030;-72
2021/11/20 09:09:49;;;;;;;;;;;17.30;99.90;;;;;;5074008;28;19938;-71
2021/11/20 09:12:20;;;;;;;;;;;17.20;99.90;;;;;;5072474;28;19990;-71
2021/11/20 09:14:50;;;;;;;;;;;17.20;99.90;;;;;;5074020;28;20014;-72
2021/11/20 09:17:18;;;;;;;;;;;17.30;99.90;;;;;;5073203;28;20389;-72
2021/11/20 09:19:45;;;;;;;;;;;17.30;99.90;;;;;;5073465;28;19916;-71
2021/11/20 09:22:13;;;;;;;;;;;17.30;99.90;;;;;;5073083;28;19913;-72
2021/11/20 09:24:42;;;;;;;;;;;17.30;99.90;;;;;;5073549;28;20019;-71
2021/11/20 09:27:09;;;;;;;;;;;17.40;99.90;;;;;;5073393;28;20329;-71
2021/11/20 09:29:37;;;;;;;;;;;17.40;99.90;;;;;;5073145;28;19908;-72
2021/11/20 09:32:04;;;;;;;;;;;17.40;99.90;;;;;;5072005;28;19917;-72
2021/11/20 09:34:31;;;;;;;;;;;17.40;99.90;;;;;;5073252;28;19924;-71
2021/11/20 09:36:58;;;;;;;;;;;17.40;99.90;;;;;;5073019;28;19908;-71
2021/11/20 09:39:31;;;;;;;;;;;17.40;99.90;;;;;;5073114;28;19913;-67
2021/11/20 09:42:03;;;;;;;;;;;17.40;99.90;;;;;;5073014;28;19938;-71
2021/11/20 09:44:40;;;;;;;;;;;17.40;99.90;;;;;;5073133;28;19917;-70
2021/11/20 09:47:10;;;;;;;;;;;17.40;99.90;;;;;;5072264;28;20375;-73
2021/11/20 09:49:40;;;;;;;;;;;17.30;99.90;;;;;;5072968;28;19908;-71
2021/11/20 09:52:07;;;;;;;;;;;17.40;99.90;;;;;;5072703;28;20374;-72
2021/11/20 09:54:37;;;;;;;;;;;17.40;99.90;;;;;;5072847;28;19908;-71
2021/11/20 09:57:14;;;;;;;;;;;17.40;99.90;;;;;;5072827;28;19908;-70
2021/11/20 09:59:49;;;;;;;;;;;17.40;99.90;;;;;;5072636;28;19971;-72
2021/11/20 10:02:18;;;;;;;;;;;17.40;99.90;;;;;;5072278;28;20005;-71
2021/11/20 10:05:00;;;;;;;;;;;17.40;99.90;;;;;;5071706;28;19908;-71
2021/11/20 10:07:29;;;;;;;;;;;17.40;99.90;;;;;;5070782;28;20008;-72
2021/11/20 10:10:01;;;;;;;;;;;17.40;99.90;;;;;;5070657;28;20367;-72
2021/11/20 10:12:33;;;;;;;;;;;17.40;99.90;;;;;;5070717;28;19916;-71
2021/11/20 10:15:03;;;;;;;;;;;17.40;99.90;;;;;;5070648;28;19912;-72
2021/11/20 10:17:32;;;;;;;;;;;17.40;99.90;;;;;;5070653;28;20378;-73
2021/11/20 10:20:15;;;;;;;;;;;17.50;99.90;;;;;;5069932;28;19908;-72
2021/11/20 10:22:51;;;;;;;;;;;17.50;99.90;;;;;;5069100;28;20290;-71
2021/11/20 10:25:33;;;;;;;;;;;17.40;99.90;;;;;;5070323;28;19913;-70
2021/11/20 10:28:19;;;;;;;;;;;17.30;99.90;;;;;;5070237;28;19919;-73
2021/11/20 10:30:52;;;;;;;;;;;17.10;99.90;;;;;;5048832;28;19916;-72
2021/11/20 10:33:21;;;;;;;;;;;17.10;99.90;;;;;;5069030;28;19920;-70
2021/11/20 10:36:08;;;;;;;;;;;17.00;99.90;;;;;;5070184;28;20400;-69
2021/11/20 10:38:44;;;;;;;;;;;16.90;99.90;;;;;;5070362;28;19915;-72
2021/11/20 10:41:22;;;;;;;;;;;16.90;99.90;;;;;;5070655;28;19909;-72
2021/11/20 10:43:53;;;;;;;;;;;16.80;99.90;;;;;;5070083;28;19912;-66
2021/11/20 10:46:23;;;;;;;;;;;16.80;99.90;;;;;;5069862;28;19930;-71
2021/11/20 10:49:09;;;;;;;;;;;16.90;99.90;;;;;;5070122;28;19909;-72
2021/11/20 10:51:58;;;;;;;;;;;16.80;99.90;;;;;;5070392;28;19924;-69
2021/11/20 10:54:37;;;;;;;;;;;16.90;99.90;;;;;;5064569;28;19919;-72
2021/11/20 10:57:33;;;;;;;;;;;16.90;99.90;;;;;;5070314;28;19915;-66
2021/11/20 11:00:07;;;;;;;;;;;16.90;99.90;;;;;;5085246;28;19924;-71
2021/11/20 11:02:33;;;;;;;;;;;16.90;99.90;;;;;;5070133;28;20328;-73
2021/11/20 11:05:03;;;;;;;;;;;17.00;99.90;;;;;;5070364;28;19961;-74
2021/11/20 11:07:32;;;;;;;;;;;16.90;99.90;;;;;;5070207;28;20236;-73
2021/11/20 11:10:02;;;;;;;;;;;16.80;99.90;;;;;;5070048;28;20006;-73
2021/11/20 11:12:29;;;;;;;;;;;16.80;99.90;;;;;;5069802;28;19990;-74
2021/11/20 11:15:13;;;;;;;;;;;16.70;99.90;;;;;;5069932;28;19909;-73
2021/11/20 11:17:58;;;;;;;;;;;16.60;99.90;;;;;;5070454;28;19995;-73
2021/11/20 11:20:25;;;;;;;;;;;16.60;99.90;;;;;;5070242;28;20362;-74
2021/11/20 11:23:00;;;;;;;;;;;16.50;99.90;;;;;;5070142;28;19912;-67
2021/11/20 11:25:30;;;;;;;;;;;16.50;99.90;;;;;;5069536;28;19962;-71
2021/11/20 11:28:06;;;;;;;;;;;16.50;99.90;;;;;;5069857;28;20319;-71
2021/11/20 11:31:11;;;;;;;;;;;16.60;99.90;;;;;;5069909;28;19909;-72
2021/11/20 11:33:40;;;;;;;;;;;16.60;99.90;;;;;;5027480;28;19988;-73
2021/11/20 11:36:22;;;;;;;;;;;16.50;99.90;;;;;;5027509;28;19909;-70
2021/11/20 11:38:49;;;;;;;;;;;16.50;99.90;;;;;;5052435;28;19951;-71
2021/11/20 11:41:24;;;;;;;;;;;16.50;99.90;;;;;;5070027;28;19913;-71
2021/11/20 11:44:10;;;;;;;;;;;16.50;99.90;;;;;;5070715;28;20525;-73
2021/11/20 11:46:54;;;;;;;;;;;16.40;99.90;;;;;;5073393;28;20476;-72
2021/11/20 11:49:21;;;;;;;;;;;16.50;99.90;;;;;;5073290;28;20160;-68
2021/11/20 11:52:06;;;;;;;;;;;16.50;99.90;;;;;;5072849;28;19936;-68
2021/11/20 11:54:58;;;;;;;;;;;16.50;99.90;;;;;;5072955;28;20389;-73
2021/11/20 11:57:37;;;;;;;;;;;16.50;99.90;;;;;;5056904;28;20286;-71
2021/11/20 12:00:24;;;;;;;;;;;16.60;99.90;;;;;;5072455;28;20737;-72
2021/11/20 12:02:52;;;;;;;;;;;16.50;99.90;;;;;;5065012;28;20362;-68
2021/11/20 12:05:34;;;;;;;;;;;16.60;99.90;;;;;;5073189;28;20371;-72
2021/11/20 12:08:00;;;;;;;;;;;16.60;99.90;;;;;;5072843;28;19994;-72
2021/11/20 12:10:46;;;;;;;;;;;16.50;99.90;;;;;;5072931;28;19908;-67
2021/11/20 12:13:13;;;;;;;;;;;16.60;99.90;;;;;;5072779;28;19923;-70
2021/11/20 12:15:47;;;;;;;;;;;16.60;99.90;;;;;;5072383;28;20279;-67
2021/11/20 12:18:22;;;;;;;;;;;16.70;99.90;;;;;;5072698;28;20362;-68
2021/11/20 12:20:56;;;;;;;;;;;16.70;99.90;;;;;;5072687;28;19915;-70
2021/11/20 12:23:28;;;;;;;;;;;16.60;99.90;;;;;;5072690;28;19908;-73
2021/11/20 12:26:13;;;;;;;;;;;16.60;99.90;;;;;;5072247;28;19954;-69
2021/11/20 12:28:57;;;;;;;;;;;16.70;99.90;;;;;;5072108;28;19916;-70
2021/11/20 12:31:42;;;;;;;;;;;16.70;99.90;;;;;;5072171;28;19908;-67
2021/11/20 12:34:20;;;;;;;;;;;16.60;99.90;;;;;;5071981;28;19920;-72
2021/11/20 12:36:47;;;;;;;;;;;16.60;99.90;;;;;;5072343;28;20636;-70
2021/11/20 12:39:17;;;;;;;;;;;16.60;99.90;;;;;;5072292;28;19913;-71
2021/11/20 12:42:09;;;;;;;;;;;16.60;99.90;;;;;;5071784;28;19909;-70
2021/11/20 12:44:36;;;;;;;;;;;16.60;99.90;;;;;;5055701;28;19965;-73
2021/11/20 12:47:02;;;;;;;;;;;16.60;99.90;;;;;;5072218;28;19912;-73
2021/11/20 12:49:29;;;;;;;;;;;16.60;99.90;;;;;;5072053;28;19908;-71
2021/11/20 12:51:57;;;;;;;;;;;16.60;99.90;;;;;;5071734;28;19912;-70
2021/11/20 12:54:43;;;;;;;;;;;16.60;99.90;;;;;;5070688;28;19912;-72
2021/11/20 12:57:23;;;;;;;;;;;16.50;99.90;;;;;;5070999;28;19926;-73
2021/11/20 12:59:51;;;;;;;;;;;16.50;99.90;;;;;;5071333;28;19920;-70
2021/11/20 13:02:24;;;;;;;;;;;16.50;99.90;;;;;;5071674;28;20007;-69
2021/11/20 13:04:52;;;;;;;;;;;16.60;99.90;;;;;;5071890;28;19942;-70
2021/11/20 13:07:23;;;;;;;;;;;16.50;99.90;;;;;;5071675;28;20033;-72
2021/11/20 13:09:53;;;;;;;;;;;16.50;99.90;;;;;;5071286;28;19919;-70
2021/11/20 13:12:19;;;;;;;;;;;16.50;99.90;;;;;;5071600;28;19912;-72
2021/11/20 13:15:04;;;;;;;;;;;16.40;99.90;;;;;;5071377;28;19909;-72
2021/11/20 13:17:34;;;;;;;;;;;16.40;99.90;;;;;;5071528;28;19923;-72
2021/11/20 13:20:12;;;;;;;;;;;16.40;99.90;;;;;;5071513;28;20395;-74
2021/11/20 13:22:41;;;;;;;;;;;16.40;99.90;;;;;;5071159;28;19966;-72
2021/11/20 13:25:12;;;;;;;;;;;16.40;99.90;;;;;;5071608;28;19974;-73
2021/11/20 13:27:39;;;;;;;;;;;16.40;99.90;;;;;;5071306;28;19916;-73
2021/11/20 13:30:07;;;;;;;;;;;16.40;99.90;;;;;;5071261;28;20370;-71
2021/11/20 13:32:33;;;;;;;;;;;16.40;99.90;;;;;;5071445;28;19927;-74
2021/11/20 13:35:01;;;;;;;;;;;16.30;99.90;;;;;;5071362;28;19961;-73
2021/11/20 13:37:28;;;;;;;;;;;16.30;99.90;;;;;;5071223;28;19919;-73
2021/11/20 13:39:55;;;;;;;;;;;16.30;99.90;;;;;;5070972;28;19955;-72
2021/11/20 13:42:21;;;;;;;;;;;16.30;99.90;;;;;;5071228;28;19917;-70
2021/11/20 13:44:51;;;;;;;;;;;16.30;99.90;;;;;;5071023;28;19916;-71
2021/11/20 13:47:19;;;;;;;;;;;16.30;99.90;;;;;;5070937;28;19969;-73
2021/11/20 13:49:54;;;;;;;;;;;16.20;99.90;;;;;;5071122;28;19916;-71
2021/11/20 13:52:21;;;;;;;;;;;16.20;99.90;;;;;;5071079;28;20141;-73
2021/11/20 13:54:58;;;;;;;;;;;16.20;99.90;;;;;;5071142;28;19919;-73
2021/11/20 13:57:30;;;;;;;;;;;16.10;99.90;;;;;;5071082;28;19970;-73
2021/11/20 14:00:17;;;;;;;;;;;16.10;99.90;;;;;;5070589;28;20016;-73
2021/11/20 14:02:57;;;;;;;;;;;16.20;99.90;;;;;;5071024;28;19912;-74
2021/11/20 14:05:25;;;;;;;;;;;16.20;99.90;;;;;;5071090;28;19914;-74
2021/11/20 14:08:02;;;;;;;;;;;16.20;99.90;;;;;;5070573;28;19948;-72
2021/11/20 14:10:36;;;;;;;;;;;16.10;99.90;;;;;;5071003;28;19931;-74
2021/11/20 14:13:17;;;;;;;;;;;16.00;99.90;;;;;;5070804;28;19924;-73
2021/11/20 14:15:45;;;;;;;;;;;15.90;99.90;;;;;;5070661;28;20002;-74
2021/11/20 14:18:12;;;;;;;;;;;15.80;99.90;;;;;;5071072;28;19912;-72
2021/11/20 14:20:47;;;;;;;;;;;15.80;99.90;;;;;;5071145;28;19958;-74
2021/11/20 14:23:15;;;;;;;;;;;15.90;99.90;;;;;;5071255;28;19912;-69
2021/11/20 14:25:42;;;;;;;;;;;15.90;99.90;;;;;;5073381;28;19953;-67
2021/11/20 14:28:08;;;;;;;;;;;15.90;99.90;;;;;;5070816;28;19908;-66
2021/11/20 14:30:42;;;;;;;;;;;15.90;99.90;;;;;;5070796;28;19916;-66
2021/11/20 14:33:11;;;;;;;;;;;15.90;99.90;;;;;;5070775;28;19917;-67